Time;durP1;ratioP1;P1;durP2;ratioP2;P2;SDS_P1;SDS_P2;PMS_P1;PMS_P2;Temp;Humidity;BMP_temperature;BMP_pressure;BME280_temperature;BME280_humidity;BME280_pressure;Samples;Min_cycle;Max_cycle;Signal;HPM_P1;HPM_P2
2020/12/14 00:00:09;;;;;;;7.40;6.30;;;4.60;84.40;;;;;;5024458;28;20208;-89
2020/12/14 00:02:36;;;;;;;6.03;5.50;;;4.70;84.20;;;;;;5039069;28;20522;-89
2020/12/14 00:05:05;;;;;;;7.83;5.47;;;4.70;83.70;;;;;;5038182;28;20217;-89
2020/12/14 00:07:33;;;;;;;5.47;4.97;;;4.50;80.90;;;;;;5023032;28;20209;-89
2020/12/14 00:10:01;;;;;;;5.73;5.13;;;4.40;83.10;;;;;;5000157;28;20263;-89
2020/12/14 00:12:27;;;;;;;5.97;5.40;;;4.50;83.80;;;;;;5039251;28;20180;-89
2020/12/14 00:14:53;;;;;;;6.30;5.53;;;4.50;83.20;;;;;;5030290;28;20184;-87
2020/12/14 00:17:20;;;;;;;6.10;5.50;;;4.40;82.90;;;;;;5021040;28;20212;-88
2020/12/14 00:19:47;;;;;;;6.57;5.57;;;4.40;83.40;;;;;;5016365;28;20185;-88
2020/12/14 00:22:13;;;;;;;6.50;5.47;;;4.40;84.00;;;;;;5017210;28;20200;-88
2020/12/14 00:24:39;;;;;;;6.17;5.67;;;4.50;84.00;;;;;;5030833;28;20185;-88
2020/12/14 00:27:05;;;;;;;6.60;5.90;;;4.60;84.10;;;;;;5036188;28;20213;-88
2020/12/14 00:29:31;;;;;;;6.00;5.10;;;4.60;84.00;;;;;;5010472;28;20228;-88
2020/12/14 00:31:57;;;;;;;7.33;5.17;;;4.50;83.80;;;;;;5041718;28;20184;-88
2020/12/14 00:34:23;;;;;;;7.63;5.03;;;4.60;83.70;;;;;;5041400;28;20188;-88
2020/12/14 00:36:49;;;;;;;6.40;5.17;;;4.50;82.80;;;;;;5038582;28;20192;-89
2020/12/14 00:39:16;;;;;;;6.23;5.63;;;4.50;83.10;;;;;;5016777;28;20195;-89
2020/12/14 00:41:43;;;;;;;6.40;5.20;;;4.50;82.80;;;;;;5015574;28;20204;-88
2020/12/14 00:44:08;;;;;;;6.67;5.53;;;4.50;82.90;;;;;;5034120;28;20192;-88
2020/12/14 00:46:34;;;;;;;5.70;5.20;;;4.60;83.00;;;;;;5043273;28;20208;-88
2020/12/14 00:49:00;;;;;;;5.77;5.27;;;4.50;82.10;;;;;;5043553;28;20262;-88
2020/12/14 00:51:31;;;;;;;5.93;5.33;;;4.50;82.60;;;;;;5016245;28;20185;-88
2020/12/14 00:53:57;;;;;;;6.03;5.43;;;4.50;82.60;;;;;;5040040;28;20267;-88
2020/12/14 00:56:23;;;;;;;4.60;4.20;;;4.50;81.80;;;;;;5025900;28;20227;-88
2020/12/14 00:58:49;;;;;;;7.53;5.13;;;4.40;81.90;;;;;;5024925;28;20349;-88
2020/12/14 01:01:20;;;;;;;6.10;5.50;;;4.40;82.90;;;;;;5027342;28;20529;-88
2020/12/14 01:03:46;;;;;;;5.30;4.70;;;4.40;83.80;;;;;;5027739;28;20177;-88
2020/12/14 01:06:12;;;;;;;4.83;4.43;;;4.50;83.80;;;;;;5027229;28;20212;-88
2020/12/14 01:08:40;;;;;;;6.10;5.57;;;4.50;83.20;;;;;;5024048;28;20180;-88
2020/12/14 01:11:06;;;;;;;6.10;5.50;;;4.50;82.80;;;;;;4998746;28;20662;-88
2020/12/14 01:13:32;;;;;;;5.93;5.33;;;4.50;82.70;;;;;;4988141;28;20197;-88
2020/12/14 01:15:57;;;;;;;6.37;5.77;;;4.50;82.70;;;;;;4988755;28;20205;-88
2020/12/14 01:18:23;;;;;;;9.03;7.23;;;4.40;81.70;;;;;;4988048;28;20185;-88
2020/12/14 01:20:49;;;;;;;10.77;7.47;;;4.30;81.90;;;;;;5005158;28;20732;-88
2020/12/14 01:23:15;;;;;;;8.20;6.90;;;4.20;82.90;;;;;;5004601;28;20174;-88
2020/12/14 01:25:41;;;;;;;6.60;5.80;;;4.20;83.90;;;;;;4972583;28;20185;-88
2020/12/14 01:28:06;;;;;;;6.27;5.53;;;4.20;83.60;;;;;;5004639;28;20242;-88
2020/12/14 01:30:35;;;;;;;7.20;6.50;;;4.20;83.10;;;;;;4972163;28;20280;-88
2020/12/14 01:33:01;;;;;;;7.30;6.00;;;4.30;83.10;;;;;;5007529;28;20178;-88
2020/12/14 01:35:27;;;;;;;6.17;5.57;;;4.20;82.30;;;;;;4992649;28;20220;-88
2020/12/14 01:37:54;;;;;;;6.50;5.87;;;4.20;82.60;;;;;;5025921;28;20247;-88
2020/12/14 01:40:20;;;;;;;7.60;6.17;;;4.20;82.70;;;;;;5006221;28;20185;-88
2020/12/14 01:42:49;;;;;;;6.63;5.77;;;4.20;82.60;;;;;;5027982;28;20189;-88
2020/12/14 01:45:18;;;;;;;6.43;5.30;;;4.20;82.10;;;;;;5046361;28;20632;-88
2020/12/14 01:47:48;;;;;;;6.53;5.30;;;4.10;82.30;;;;;;5028668;28;20259;-87
2020/12/14 01:50:14;;;;;;;5.83;5.33;;;4.00;82.70;;;;;;5027963;28;20220;-88
2020/12/14 01:52:45;;;;;;;7.27;5.47;;;4.00;83.30;;;;;;5027460;28;20268;-87
2020/12/14 01:55:18;;;;;;;6.77;5.43;;;4.10;83.10;;;;;;5028056;28;20641;-88
2020/12/14 01:57:44;;;;;;;5.30;4.80;;;4.10;82.70;;;;;;5045201;28;20223;-88
2020/12/14 02:00:11;;;;;;;6.60;5.27;;;4.00;82.50;;;;;;5032402;28;20204;-88
2020/12/14 02:02:37;;;;;;;7.00;4.97;;;4.10;82.70;;;;;;5045372;28;20245;-88
2020/12/14 02:05:05;;;;;;;5.53;5.03;;;4.10;82.80;;;;;;5045069;28;20208;-88
2020/12/14 02:07:31;;;;;;;5.17;4.67;;;4.10;82.70;;;;;;5016548;28;20633;-88
2020/12/14 02:09:57;;;;;;;5.47;4.80;;;4.00;81.30;;;;;;5007816;28;20518;-88
2020/12/14 02:12:24;;;;;;;5.83;5.27;;;3.90;82.30;;;;;;5025050;28;20254;-88
2020/12/14 02:14:54;;;;;;;4.93;4.53;;;3.90;82.20;;;;;;5024380;28;20260;-88
2020/12/14 02:17:21;;;;;;;4.90;4.40;;;3.90;82.80;;;;;;5024759;28;20205;-88
2020/12/14 02:19:48;;;;;;;6.03;5.13;;;3.90;83.00;;;;;;5024623;28;20272;-89
2020/12/14 02:22:18;;;;;;;5.40;4.83;;;3.80;82.70;;;;;;5027908;28;20210;-88
2020/12/14 02:24:51;;;;;;;5.63;5.13;;;3.80;82.60;;;;;;5021913;28;20237;-88
2020/12/14 02:27:16;;;;;;;5.70;5.17;;;3.80;82.70;;;;;;5022169;28;20205;-89
2020/12/14 02:29:47;;;;;;;7.73;5.30;;;3.80;82.80;;;;;;5029024;28;20291;-88
2020/12/14 02:32:14;;;;;;;5.83;5.00;;;3.90;82.80;;;;;;5008754;28;20200;-88
2020/12/14 02:34:40;;;;;;;5.57;4.33;;;3.90;82.50;;;;;;5042152;28;20211;-88
2020/12/14 02:37:10;;;;;;;5.77;4.83;;;3.90;82.70;;;;;;5024209;28;20232;-88
2020/12/14 02:39:37;;;;;;;5.10;4.60;;;3.90;81.80;;;;;;5007661;28;20204;-88
2020/12/14 02:42:23;;;;;;;5.40;4.93;;;3.80;81.20;;;;;;5023873;28;20185;-88
2020/12/14 02:44:49;;;;;;;5.93;4.83;;;3.70;82.10;;;;;;5022868;28;20191;-88
2020/12/14 02:47:15;;;;;;;5.43;5.03;;;3.70;83.50;;;;;;5042416;28;20204;-88
2020/12/14 02:49:42;;;;;;;5.40;4.90;;;3.60;83.10;;;;;;5018629;28;20201;-88
2020/12/14 02:52:09;;;;;;;5.00;4.50;;;3.60;83.80;;;;;;5004455;28;20277;-88
2020/12/14 02:54:36;;;;;;;5.30;4.80;;;3.60;83.10;;;;;;5021239;28;20177;-88
2020/12/14 02:57:02;;;;;;;4.73;4.33;;;3.60;83.00;;;;;;4994784;28;20227;-89
2020/12/14 02:59:28;;;;;;;4.93;4.53;;;3.60;82.80;;;;;;5040804;28;20653;-87
2020/12/14 03:01:54;;;;;;;5.93;4.63;;;3.70;82.80;;;;;;5041492;28;20173;-87
2020/12/14 03:04:21;;;;;;;5.37;4.83;;;3.70;82.70;;;;;;4999227;28;20194;-88
2020/12/14 03:06:48;;;;;;;5.40;5.00;;;3.70;82.40;;;;;;5004227;28;20215;-88
2020/12/14 03:09:15;;;;;;;4.50;4.10;;;3.70;81.00;;;;;;5003213;28;20235;-88
2020/12/14 03:11:42;;;;;;;6.13;5.53;;;3.50;82.00;;;;;;4987804;28;20707;-88
2020/12/14 03:14:09;;;;;;;5.03;4.40;;;3.40;81.80;;;;;;5003404;28;20194;-88
2020/12/14 03:16:45;;;;;;;5.40;4.90;;;3.50;82.80;;;;;;5003912;28;20228;-89
2020/12/14 03:19:11;;;;;;;5.10;4.60;;;3.50;82.80;;;;;;5015204;28;20207;-88
2020/12/14 03:21:37;;;;;;;4.90;4.50;;;3.60;82.70;;;;;;5041846;28;20550;-88
2020/12/14 03:24:03;;;;;;;4.90;4.50;;;3.70;82.70;;;;;;5042079;28;20192;-88
2020/12/14 03:26:29;;;;;;;4.90;4.50;;;3.70;82.80;;;;;;5041855;28;20799;-88
2020/12/14 03:28:54;;;;;;;4.63;4.20;;;3.70;82.30;;;;;;5042258;28;20531;-87
2020/12/14 03:31:20;;;;;;;6.53;4.90;;;3.70;82.50;;;;;;5024912;28;20181;-88
2020/12/14 03:33:47;;;;;;;4.40;3.97;;;3.70;81.40;;;;;;5027049;28;20212;-87
2020/12/14 03:36:12;;;;;;;4.97;4.57;;;3.60;81.70;;;;;;5004538;28;20210;-88
2020/12/14 03:38:38;;;;;;;4.90;4.47;;;3.60;82.00;;;;;;5004376;28;20186;-87
2020/12/14 03:41:05;;;;;;;6.60;5.23;;;3.60;81.50;;;;;;4988467;28;20189;-87
2020/12/14 03:43:30;;;;;;;5.00;4.50;;;3.60;81.50;;;;;;5005782;28;20553;-88
2020/12/14 03:45:57;;;;;;;4.87;4.47;;;3.50;81.70;;;;;;5003847;28;20194;-87
2020/12/14 03:48:23;;;;;;;4.73;4.33;;;3.50;82.00;;;;;;5039288;28;20241;-87
2020/12/14 03:50:49;;;;;;;5.53;4.40;;;3.60;82.20;;;;;;5041842;28;20241;-87
2020/12/14 03:53:15;;;;;;;6.27;4.37;;;3.60;82.10;;;;;;5042323;28;20188;-88
2020/12/14 03:55:41;;;;;;;4.60;4.20;;;3.70;82.30;;;;;;5022812;28;20510;-88
2020/12/14 03:58:07;;;;;;;4.93;4.40;;;3.70;82.30;;;;;;5023820;28;20177;-87
2020/12/14 04:00:34;;;;;;;5.77;4.10;;;3.70;82.10;;;;;;5006748;28;20196;-87
2020/12/14 04:03:03;;;;;;;4.30;3.90;;;3.60;81.00;;;;;;5003979;28;20181;-87
2020/12/14 04:05:29;;;;;;;4.83;4.33;;;3.50;82.30;;;;;;5020117;28;20762;-88
2020/12/14 04:07:55;;;;;;;4.20;3.80;;;3.60;82.40;;;;;;5007012;28;20244;-87
2020/12/14 04:10:21;;;;;;;6.10;4.23;;;3.60;82.40;;;;;;5041469;28;20209;-88
2020/12/14 04:12:46;;;;;;;5.27;4.63;;;3.60;82.30;;;;;;5024164;28;20177;-88
2020/12/14 04:15:12;;;;;;;4.23;3.83;;;3.50;82.10;;;;;;5023428;28;20189;-88
2020/12/14 04:17:38;;;;;;;4.50;4.10;;;3.60;82.10;;;;;;5022233;28;20200;-88
2020/12/14 04:20:03;;;;;;;4.87;4.37;;;3.60;82.40;;;;;;5041368;28;20181;-88
2020/12/14 04:22:29;;;;;;;5.27;4.77;;;3.50;82.80;;;;;;5023828;28;20185;-88
2020/12/14 04:24:55;;;;;;;4.80;4.03;;;3.60;82.70;;;;;;5041493;28;20653;-87
2020/12/14 04:27:20;;;;;;;5.23;4.30;;;3.50;82.10;;;;;;5007402;28;20237;-87
2020/12/14 04:29:46;;;;;;;6.90;4.30;;;3.50;82.30;;;;;;5007011;28;20208;-88
2020/12/14 04:32:12;;;;;;;5.43;4.03;;;3.60;82.40;;;;;;5007540;28;20204;-87
2020/12/14 04:34:37;;;;;;;5.00;4.00;;;3.50;82.50;;;;;;5006993;28;20177;-89
2020/12/14 04:37:03;;;;;;;4.33;3.70;;;3.50;83.00;;;;;;5006781;28;20213;-87
2020/12/14 04:39:29;;;;;;;4.40;3.77;;;3.50;82.70;;;;;;4987890;28;20272;-87
2020/12/14 04:41:56;;;;;;;3.60;3.30;;;3.50;82.80;;;;;;5021343;28;20217;-87
2020/12/14 04:44:22;;;;;;;3.90;3.60;;;3.60;82.60;;;;;;5004109;28;20245;-87
2020/12/14 04:46:49;;;;;;;4.43;3.70;;;3.60;82.30;;;;;;4987546;28;20239;-87
2020/12/14 04:49:15;;;;;;;4.60;3.80;;;3.60;82.70;;;;;;5021295;28;20197;-88
2020/12/14 04:51:41;;;;;;;4.47;3.47;;;3.50;81.10;;;;;;4987519;28;20182;-88
2020/12/14 04:54:08;;;;;;;3.73;3.43;;;3.30;82.80;;;;;;5021419;28;20220;-87
2020/12/14 04:56:41;;;;;;;4.00;3.57;;;3.30;83.50;;;;;;5003357;28;20305;-87
2020/12/14 04:59:08;;;;;;;3.90;3.60;;;3.40;83.80;;;;;;5003898;28;20585;-87
2020/12/14 05:01:35;;;;;;;4.13;3.40;;;3.50;83.30;;;;;;5020999;28;20185;-88
2020/12/14 05:04:02;;;;;;;4.47;3.57;;;3.50;83.40;;;;;;5006429;28;20173;-89
2020/12/14 05:06:50;;;;;;;5.07;4.13;;;3.50;82.80;;;;;;5006988;28;20260;-88
2020/12/14 05:09:20;;;;;;;4.57;4.17;;;3.50;83.00;;;;;;5042571;28;20653;-89
2020/12/14 05:11:47;;;;;;;4.63;4.23;;;3.60;83.00;;;;;;5025989;28;20171;-89
2020/12/14 05:14:24;;;;;;;5.60;3.80;;;3.60;83.20;;;;;;5008343;28;20189;-88
2020/12/14 05:16:51;;;;;;;3.93;3.47;;;3.60;82.30;;;;;;5043030;28;20192;-87
2020/12/14 05:19:27;;;;;;;4.17;3.77;;;3.60;83.30;;;;;;5008097;28;20538;-87
2020/12/14 05:21:55;;;;;;;3.40;3.10;;;3.60;83.60;;;;;;5024984;28;20288;-88
2020/12/14 05:24:29;;;;;;;3.57;3.27;;;3.60;83.50;;;;;;5021463;28;20185;-89
2020/12/14 05:26:57;;;;;;;4.57;3.73;;;3.60;83.10;;;;;;5005228;28;20289;-90
2020/12/14 05:29:28;;;;;;;3.77;3.30;;;3.50;83.20;;;;;;4989469;28;20312;-89
2020/12/14 05:32:11;;;;;;;3.90;3.50;;;3.50;84.10;;;;;;4989133;28;20776;-89
2020/12/14 05:34:41;;;;;;;4.33;3.60;;;3.40;84.80;;;;;;5004791;28;20205;-89
2020/12/14 05:37:10;;;;;;;6.00;4.73;;;3.40;85.00;;;;;;5023749;28;20234;-89
2020/12/14 05:39:37;;;;;;;8.40;6.30;;;3.40;86.10;;;;;;5042164;28;20174;-89
2020/12/14 05:42:15;;;;;;;8.23;5.70;;;3.30;86.80;;;;;;5019342;28;20254;-89
2020/12/14 05:44:43;;;;;;;3.70;3.40;;;3.40;85.60;;;;;;5027886;28;20207;-90
2020/12/14 05:47:27;;;;;;;5.77;3.20;;;3.40;84.30;;;;;;5034525;28;20209;-88
2020/12/14 05:49:55;;;;;;;3.13;2.83;;;3.30;85.70;;;;;;5007594;28;20407;-88
2020/12/14 05:52:23;;;;;;;5.00;3.87;;;3.20;86.70;;;;;;5024380;28;20172;-89
2020/12/14 05:54:56;;;;;;;3.87;3.47;;;3.10;86.40;;;;;;5005029;28;20269;-90
2020/12/14 05:57:38;;;;;;;3.40;3.10;;;3.20;86.70;;;;;;5004447;28;20211;-89
2020/12/14 06:00:05;;;;;;;3.50;3.20;;;3.20;85.30;;;;;;5010007;28;20181;-87
2020/12/14 06:02:31;;;;;;;3.40;2.73;;;3.10;86.00;;;;;;5019658;28;20181;-88
2020/12/14 06:04:58;;;;;;;3.30;3.00;;;3.10;86.70;;;;;;5005007;28;20251;-87
2020/12/14 06:07:28;;;;;;;3.37;2.97;;;3.00;87.00;;;;;;5041118;28;20296;-87
2020/12/14 06:10:03;;;;;;;3.53;3.13;;;3.00;87.60;;;;;;5007360;28;20285;-89
2020/12/14 06:12:31;;;;;;;3.20;2.90;;;3.00;87.90;;;;;;5023495;28;20180;-88
2020/12/14 06:15:04;;;;;;;3.73;3.03;;;3.10;87.90;;;;;;5024229;28;20649;-89
2020/12/14 06:17:30;;;;;;;4.13;3.43;;;3.20;87.90;;;;;;5006830;28;20225;-88
2020/12/14 06:20:23;;;;;;;3.80;3.07;;;3.20;87.60;;;;;;5009655;28;20189;-90
2020/12/14 06:23:07;;;;;;;6.40;2.97;;;3.30;86.30;;;;;;5040080;28;20201;-88
2020/12/14 06:25:34;;;;;;;5.17;3.47;;;3.40;86.20;;;;;;5042251;28;20198;-89
2020/12/14 06:28:26;;;;;;;5.00;3.30;;;3.40;86.10;;;;;;5039979;28;20187;-87
2020/12/14 06:30:53;;;;;;;4.30;3.33;;;3.30;86.60;;;;;;5062779;28;20200;-89
2020/12/14 06:33:35;;;;;;;3.70;3.10;;;3.40;87.00;;;;;;5043523;28;20233;-89
2020/12/14 06:36:21;;;;;;;4.70;3.90;;;3.50;85.90;;;;;;5035721;22;20220;-88
2020/12/14 06:38:48;;;;;;;3.87;3.50;;;3.30;87.50;;;;;;5060872;28;20215;-88
2020/12/14 06:41:19;;;;;;;3.53;3.23;;;3.40;87.50;;;;;;5074885;28;20215;-89
2020/12/14 06:43:47;;;;;;;3.10;2.80;;;3.50;86.80;;;;;;5074613;28;20196;-89
2020/12/14 06:46:13;;;;;;;3.67;3.10;;;3.50;86.70;;;;;;5078386;28;20227;-89
2020/12/14 06:48:44;;;;;;;3.90;3.13;;;3.50;86.50;;;;;;5061938;28;20191;-88
2020/12/14 06:51:12;;;;;;;3.23;2.93;;;3.50;87.60;;;;;;5069830;28;20208;-82
2020/12/14 06:53:54;;;;;;;3.70;2.83;;;3.50;88.70;;;;;;5074318;28;20250;-82
2020/12/14 06:56:32;;;;;;;3.27;2.97;;;3.60;88.90;;;;;;5073539;28;20180;-82
2020/12/14 06:58:58;;;;;;;4.27;3.33;;;3.70;88.70;;;;;;5074593;28;20227;-83
2020/12/14 07:01:35;;;;;;;4.33;3.93;;;3.80;87.60;;;;;;5079162;28;20558;-83
2020/12/14 07:04:06;;;;;;;3.50;3.20;;;3.80;87.30;;;;;;5061057;28;20207;-82
2020/12/14 07:06:33;;;;;;;4.90;3.50;;;3.80;87.70;;;;;;5055783;28;20556;-82
2020/12/14 07:08:59;;;;;;;4.87;3.83;;;3.80;88.00;;;;;;5074462;28;20185;-83
2020/12/14 07:11:25;;;;;;;4.67;3.73;;;3.80;87.70;;;;;;5073779;28;20199;-83
2020/12/14 07:13:53;;;;;;;4.40;3.33;;;3.90;87.90;;;;;;5076815;28;20587;-82
2020/12/14 07:16:26;;;;;;;6.50;4.07;;;3.90;88.40;;;;;;5073665;28;20679;-82
2020/12/14 07:18:53;;;;;;;7.30;3.77;;;3.90;88.90;;;;;;5076377;28;20187;-82
2020/12/14 07:21:18;;;;;;;5.33;3.47;;;4.00;88.40;;;;;;5054450;28;20208;-83
2020/12/14 07:23:46;;;;;;;3.60;3.20;;;4.00;86.90;;;;;;5073158;28;20194;-82
2020/12/14 07:26:14;;;;;;;5.03;3.30;;;4.00;86.90;;;;;;5055087;28;20215;-83
2020/12/14 07:28:44;;;;;;;10.93;5.40;;;3.90;87.50;;;;;;5051234;28;20202;-83
2020/12/14 07:31:11;;;;;;;6.90;5.23;;;3.90;88.40;;;;;;5063481;28;20192;-82
2020/12/14 07:33:39;;;;;;;5.07;4.57;;;4.00;88.00;;;;;;5071758;28;20189;-82
2020/12/14 07:36:10;;;;;;;6.27;5.20;;;4.00;87.90;;;;;;5055349;28;20207;-82
2020/12/14 07:38:47;;;;;;;5.47;4.97;;;4.00;88.30;;;;;;5073323;28;20181;-83
2020/12/14 07:41:13;;;;;;;10.33;4.57;;;4.10;88.50;;;;;;5066388;28;20207;-87
2020/12/14 07:43:47;;;;;;;6.43;4.20;;;4.10;87.70;;;;;;5055657;28;20557;-88
2020/12/14 07:46:20;;;;;;;5.80;4.30;;;4.00;87.70;;;;;;5056685;28;20187;-88
2020/12/14 07:48:58;;;;;;;5.30;4.03;;;4.00;88.60;;;;;;5080733;28;20187;-88
2020/12/14 07:51:25;;;;;;;4.80;4.20;;;4.10;89.00;;;;;;5052237;28;20200;-88
2020/12/14 07:53:52;;;;;;;5.23;4.13;;;4.20;88.50;;;;;;5073048;28;20501;-88
2020/12/14 07:56:19;;;;;;;5.20;3.77;;;4.10;88.50;;;;;;5075432;28;20195;-88
2020/12/14 07:58:49;;;;;;;4.10;3.73;;;4.10;89.20;;;;;;5059089;28;20199;-88
2020/12/14 08:01:17;;;;;;;4.60;4.00;;;4.20;88.80;;;;;;5063961;28;20212;-88
2020/12/14 08:03:43;;;;;;;4.40;3.90;;;4.20;89.10;;;;;;5055955;28;20194;-90
2020/12/14 08:06:11;;;;;;;4.20;3.67;;;4.20;89.90;;;;;;5060346;28;20184;-87
2020/12/14 08:08:39;;;;;;;9.93;6.20;;;4.30;89.00;;;;;;5047516;28;20211;-88
2020/12/14 08:11:05;;;;;;;5.47;4.43;;;4.30;88.90;;;;;;5041326;28;20214;-87
2020/12/14 08:13:32;;;;;;;5.07;3.77;;;4.20;89.20;;;;;;5078605;28;20184;-88
2020/12/14 08:16:04;;;;;;;7.90;7.10;;;4.20;89.60;;;;;;5056001;28;20184;-87
2020/12/14 08:18:30;;;;;;;6.73;5.73;;;4.30;89.80;;;;;;5070498;28;20180;-88
2020/12/14 08:20:56;;;;;;;4.60;4.20;;;4.40;90.00;;;;;;5045934;28;20203;-87
2020/12/14 08:23:23;;;;;;;3.67;3.30;;;4.50;89.80;;;;;;5044236;28;20188;-88
2020/12/14 08:25:51;;;;;;;4.17;3.77;;;4.50;89.60;;;;;;5069548;28;20184;-89
2020/12/14 08:28:30;;;;;;;3.80;3.50;;;4.50;89.90;;;;;;5047740;28;20188;-88
2020/12/14 08:30:56;;;;;;;3.50;3.20;;;4.60;89.70;;;;;;5030006;28;20265;-88
2020/12/14 08:33:22;;;;;;;4.43;3.87;;;4.60;90.30;;;;;;5054043;28;20183;-88
2020/12/14 08:35:50;;;;;;;6.17;4.73;;;4.60;89.80;;;;;;5072040;28;20195;-89
2020/12/14 08:38:21;;;;;;;6.67;4.07;;;4.60;90.20;;;;;;5048434;28;20195;-87
2020/12/14 08:40:50;;;;;;;5.63;4.70;;;4.60;91.10;;;;;;5076003;28;20195;-87
2020/12/14 08:43:17;;;;;;;5.03;4.63;;;4.70;90.70;;;;;;5063836;28;20552;-88
2020/12/14 08:46:17;;;;;;;5.10;4.60;;;4.80;90.10;;;;;;5048999;28;20188;-87
2020/12/14 08:48:51;;;;;;;5.10;4.60;;;4.80;90.70;;;;;;5059597;28;20195;-87
2020/12/14 08:51:31;;;;;;;4.90;3.73;;;5.00;88.50;;;;;;5052544;28;20221;-87
2020/12/14 08:54:12;;;;;;;6.83;4.70;;;5.00;88.30;;;;;;5057459;28;20219;-89
2020/12/14 08:56:38;;;;;;;5.37;4.43;;;5.00;88.10;;;;;;5066865;28;20237;-88
2020/12/14 08:59:13;;;;;;;5.23;4.43;;;5.00;87.90;;;;;;5066623;28;20176;-90
2020/12/14 09:01:40;;;;;;;5.93;4.47;;;5.20;88.10;;;;;;5076030;28;20310;-90
2020/12/14 09:04:06;;;;;;;6.00;5.10;;;5.20;88.60;;;;;;5070410;28;20191;-88
2020/12/14 09:06:33;;;;;;;11.50;6.07;;;5.40;87.40;;;;;;5075809;28;20225;-89
2020/12/14 09:09:12;;;;;;;6.07;4.80;;;5.30;85.50;;;;;;5078532;28;20173;-91
2020/12/14 09:11:50;;;;;;;8.20;4.50;;;5.40;86.00;;;;;;5068606;28;20223;-91
2020/12/14 09:14:21;;;;;;;5.23;4.23;;;5.50;84.70;;;;;;5080662;28;20194;-90
2020/12/14 09:16:49;;;;;;;5.57;3.77;;;5.50;84.10;;;;;;5070104;28;20184;-89
2020/12/14 09:19:25;;;;;;;5.73;3.90;;;5.50;84.50;;;;;;5073651;28;20211;-88
2020/12/14 09:21:51;;;;;;;9.20;5.90;;;5.70;82.30;;;;;;5056185;28;20215;-90
2020/12/14 09:24:23;;;;;;;30.87;18.93;;;5.70;82.80;;;;;;5056905;28;20191;-90
2020/12/14 09:26:50;;;;;;;9.90;7.47;;;5.70;83.10;;;;;;5053525;28;20196;-90
2020/12/14 09:29:16;;;;;;;11.33;7.77;;;5.90;83.30;;;;;;5074120;28;20199;-90
2020/12/14 09:31:51;;;;;;;6.77;5.70;;;6.10;83.40;;;;;;5075386;28;20211;-90
2020/12/14 09:34:17;;;;;;;6.53;4.40;;;6.10;84.50;;;;;;5074199;28;20250;-90
2020/12/14 09:36:44;;;;;;;8.53;4.77;;;6.10;85.60;;;;;;5074952;28;20199;-90
2020/12/14 09:39:10;;;;;;;5.93;4.80;;;6.20;84.90;;;;;;5073053;28;20195;-90
2020/12/14 09:41:36;;;;;;;5.87;4.03;;;6.10;85.50;;;;;;5075673;28;20234;-89
2020/12/14 09:44:01;;;;;;;4.50;4.07;;;6.00;86.50;;;;;;5070190;28;20181;-90
2020/12/14 09:46:28;;;;;;;5.40;4.03;;;6.30;85.00;;;;;;5054772;28;20247;-89
2020/12/14 09:48:56;;;;;;;4.83;4.33;;;6.30;84.80;;;;;;5073057;28;20528;-89
2020/12/14 09:51:22;;;;;;;6.57;3.83;;;6.40;85.00;;;;;;5075786;28;20208;-90
2020/12/14 09:53:48;;;;;;;11.13;3.83;;;6.30;82.80;;;;;;5072385;28;20187;-88
2020/12/14 09:56:14;;;;;;;3.77;3.47;;;6.30;83.20;;;;;;5077564;28;20175;-91
2020/12/14 09:58:40;;;;;;;7.23;3.87;;;6.50;82.50;;;;;;5078379;28;20179;-89
2020/12/14 10:01:06;;;;;;;4.40;4.00;;;6.60;79.50;;;;;;5064330;28;20207;-89
2020/12/14 10:03:33;;;;;;;7.83;6.40;;;6.60;79.70;;;;;;5075959;28;20201;-90
2020/12/14 10:05:58;;;;;;;5.77;4.47;;;6.60;79.70;;;;;;5073676;28;20222;-88
2020/12/14 10:08:24;;;;;;;5.27;4.03;;;6.60;80.30;;;;;;5060579;28;20196;-88
2020/12/14 10:10:51;;;;;;;5.23;4.53;;;6.70;79.60;;;;;;5078408;28;20216;-91
2020/12/14 10:13:18;;;;;;;5.43;4.93;;;6.60;80.00;;;;;;5077155;28;20210;-89
2020/12/14 10:15:43;;;;;;;5.10;4.57;;;6.70;79.60;;;;;;5064380;28;20238;-90
2020/12/14 10:18:09;;;;;;;4.63;3.90;;;6.80;79.20;;;;;;5071493;28;20192;-89
2020/12/14 10:20:35;;;;;;;5.03;4.07;;;6.90;78.20;;;;;;5079380;28;20650;-90
2020/12/14 10:23:00;;;;;;;5.53;4.63;;;6.90;79.20;;;;;;5070516;28;20212;-88
2020/12/14 10:25:26;;;;;;;8.27;4.60;;;6.70;80.60;;;;;;5039595;28;20283;-91
2020/12/14 10:27:52;;;;;;;6.47;4.80;;;6.90;78.90;;;;;;5048982;28;20187;-89
2020/12/14 10:30:19;;;;;;;5.17;4.20;;;7.00;78.60;;;;;;5054310;28;20247;-90
2020/12/14 10:32:46;;;;;;;6.53;4.20;;;7.00;78.80;;;;;;5035605;28;20199;-88
2020/12/14 10:35:11;;;;;;;6.17;4.07;;;7.00;79.40;;;;;;5048494;28;20270;-90
2020/12/14 10:37:38;;;;;;;5.83;4.40;;;6.90;79.80;;;;;;5069642;28;20222;-89
2020/12/14 10:40:06;;;;;;;6.27;4.53;;;7.20;78.60;;;;;;5070688;28;20200;-89
2020/12/14 10:42:33;;;;;;;4.73;4.07;;;7.50;76.50;;;;;;5076451;28;20212;-92
2020/12/14 10:45:00;;;;;;;5.10;4.37;;;7.70;76.50;;;;;;5053941;28;20204;-90
2020/12/14 10:47:27;;;;;;;4.83;4.00;;;7.80;76.80;;;;;;5061133;28;20180;-89
2020/12/14 10:49:53;;;;;;;9.67;4.70;;;8.00;75.50;;;;;;5073161;28;20225;-89
2020/12/14 10:52:18;;;;;;;4.53;4.13;;;8.30;74.90;;;;;;5057312;28;20261;-90
2020/12/14 10:54:44;;;;;;;4.10;3.70;;;8.40;72.90;;;;;;5039786;28;20188;-90
2020/12/14 10:57:10;;;;;;;4.57;3.87;;;8.50;70.70;;;;;;5053764;28;20192;-90
2020/12/14 10:59:36;;;;;;;4.17;3.73;;;8.50;72.40;;;;;;5054134;28;20245;-90
2020/12/14 11:02:01;;;;;;;4.97;3.70;;;8.40;73.50;;;;;;5073041;28;20208;-89
2020/12/14 11:04:27;;;;;;;5.20;4.30;;;8.50;72.30;;;;;;5035752;28;20245;-89
2020/12/14 11:06:52;;;;;;;4.83;4.10;;;8.70;72.00;;;;;;5073017;28;20199;-90
2020/12/14 11:09:18;;;;;;;4.07;3.67;;;8.70;71.90;;;;;;5074029;28;20187;-87
2020/12/14 11:11:44;;;;;;;4.97;3.93;;;8.80;71.20;;;;;;5071837;28;20225;-89
2020/12/14 11:14:10;;;;;;;4.23;3.83;;;8.80;70.00;;;;;;5058537;28;20206;-90
2020/12/14 11:16:39;;;;;;;6.93;3.83;;;9.00;70.50;;;;;;5073286;28;20275;-89
2020/12/14 11:19:05;;;;;;;5.37;3.93;;;8.90;70.30;;;;;;5055117;28;20259;-88
2020/12/14 11:21:31;;;;;;;4.40;3.60;;;9.10;69.30;;;;;;5073884;28;20659;-90
2020/12/14 11:23:57;;;;;;;4.70;4.00;;;9.10;69.00;;;;;;5071076;28;20187;-91
2020/12/14 11:26:22;;;;;;;4.73;3.77;;;9.10;69.60;;;;;;5055877;28;20180;-88
2020/12/14 11:28:48;;;;;;;3.77;3.37;;;9.30;69.00;;;;;;5078574;28;20188;-90
2020/12/14 11:31:18;;;;;;;4.37;3.87;;;9.50;68.90;;;;;;5073808;28;20311;-90
2020/12/14 11:33:44;;;;;;;3.40;3.10;;;9.30;68.00;;;;;;5054693;28;20254;-90
2020/12/14 11:36:09;;;;;;;4.50;3.53;;;9.10;68.40;;;;;;5073309;28;20726;-91
2020/12/14 11:38:35;;;;;;;4.57;3.50;;;9.30;67.80;;;;;;5075425;28;20619;-89
2020/12/14 11:41:01;;;;;;;3.80;3.47;;;9.50;67.50;;;;;;5092023;28;20198;-86
2020/12/14 11:43:27;;;;;;;3.80;3.20;;;9.90;66.00;;;;;;5067526;28;20599;-90
2020/12/14 11:45:52;;;;;;;4.33;3.37;;;10.00;66.00;;;;;;5040750;28;20593;-91
2020/12/14 11:48:18;;;;;;;4.37;3.20;;;10.10;64.30;;;;;;5049516;28;20192;-88
2020/12/14 11:50:44;;;;;;;3.83;3.40;;;10.20;64.70;;;;;;5088206;28;20326;-87
2020/12/14 11:53:11;;;;;;;4.63;4.00;;;10.40;62.30;;;;;;5080545;28;20236;-90
2020/12/14 11:55:37;;;;;;;3.73;3.33;;;10.40;63.20;;;;;;5073720;28;20175;-90
2020/12/14 11:58:03;;;;;;;11.07;8.07;;;10.20;63.30;;;;;;5077887;28;20192;-91
2020/12/14 12:00:29;;;;;;;6.43;4.57;;;10.20;64.70;;;;;;5060925;28;20192;-90
2020/12/14 12:02:55;;;;;;;4.27;3.73;;;10.10;64.60;;;;;;5075096;28;20211;-89
2020/12/14 12:05:21;;;;;;;4.53;3.83;;;10.10;64.60;;;;;;5079788;28;20220;-90
2020/12/14 12:07:47;;;;;;;4.77;3.97;;;10.30;64.00;;;;;;5082302;28;20230;-91
2020/12/14 12:10:12;;;;;;;5.63;5.13;;;10.40;63.30;;;;;;5070559;28;20223;-89
2020/12/14 12:12:38;;;;;;;8.37;5.33;;;10.40;63.50;;;;;;5062214;28;20200;-90
2020/12/14 12:15:05;;;;;;;7.70;5.07;;;10.10;63.70;;;;;;5064547;28;20192;-91
2020/12/14 12:17:30;;;;;;;7.07;5.10;;;9.90;63.90;;;;;;5058739;28;20206;-90
2020/12/14 12:19:56;;;;;;;7.33;5.43;;;9.80;64.70;;;;;;5062547;28;20183;-90
2020/12/14 12:22:22;;;;;;;6.47;5.87;;;9.90;64.60;;;;;;5045651;28;20204;-90
2020/12/14 12:24:48;;;;;;;6.47;5.53;;;9.90;64.20;;;;;;5046547;28;20184;-89
2020/12/14 12:27:13;;;;;;;10.70;6.17;;;10.00;64.00;;;;;;5065083;28;20182;-89
2020/12/14 12:29:40;;;;;;;9.13;7.13;;;9.90;64.20;;;;;;5045991;28;20204;-91
2020/12/14 12:32:05;;;;;;;8.07;6.90;;;10.00;64.60;;;;;;5046761;28;20208;-91
2020/12/14 12:34:34;;;;;;;8.03;5.60;;;9.90;65.50;;;;;;5064240;28;20176;-91
2020/12/14 12:37:01;;;;;;;8.17;6.13;;;9.80;64.50;;;;;;5046422;28;20204;-91
2020/12/14 12:39:27;;;;;;;10.97;6.37;;;9.80;65.90;;;;;;5063869;28;20639;-91
2020/12/14 12:41:54;;;;;;;7.43;6.73;;;9.70;65.90;;;;;;5063908;28;20693;-91
2020/12/14 12:44:21;;;;;;;9.63;5.80;;;9.70;66.10;;;;;;5046923;28;20181;-91
2020/12/14 12:46:47;;;;;;;10.57;8.53;;;9.60;66.00;;;;;;5064529;28;20173;-89
2020/12/14 12:49:13;;;;;;;9.20;5.73;;;9.60;66.20;;;;;;5064335;28;20176;-91
2020/12/14 12:51:52;;;;;;;9.53;7.13;;;9.50;67.40;;;;;;5046382;28;20210;-90
2020/12/14 12:54:18;;;;;;;9.50;6.33;;;9.70;66.80;;;;;;5065651;28;20187;-91
2020/12/14 12:56:44;;;;;;;11.63;7.93;;;9.80;67.10;;;;;;5048711;28;20273;-91
2020/12/14 12:59:11;;;;;;;9.57;6.27;;;9.80;66.30;;;;;;5048003;28;20196;-91